sensor_id;sensor_type;location;lat;lon;timestamp;P1;durP1;ratioP1;P2;durP2;ratioP2
12956;SDS011;6543;48.836;10.092;2023-08-31T00:00:51;4.27;;;3.20;;
12956;SDS011;6543;48.836;10.092;2023-08-31T00:03:18;2.80;;;2.60;;
12956;SDS011;6543;48.836;10.092;2023-08-31T00:05:46;4.93;;;2.93;;
12956;SDS011;6543;48.836;10.092;2023-08-31T00:08:16;4.43;;;3.07;;
12956;SDS011;6543;48.836;10.092;2023-08-31T00:10:43;4.90;;;2.80;;
12956;SDS011;6543;48.836;10.092;2023-08-31T00:13:10;4.97;;;2.70;;
12956;SDS011;6543;48.836;10.092;2023-08-31T00:15:37;3.47;;;3.00;;
12956;SDS011;6543;48.836;10.092;2023-08-31T00:18:06;5.10;;;3.00;;
12956;SDS011;6543;48.836;10.092;2023-08-31T00:20:33;4.43;;;3.33;;
12956;SDS011;6543;48.836;10.092;2023-08-31T00:23:01;2.97;;;2.73;;
12956;SDS011;6543;48.836;10.092;2023-08-31T00:25:28;2.80;;;2.60;;
12956;SDS011;6543;48.836;10.092;2023-08-31T00:27:56;2.97;;;2.77;;
12956;SDS011;6543;48.836;10.092;2023-08-31T00:30:29;3.43;;;2.80;;
12956;SDS011;6543;48.836;10.092;2023-08-31T00:32:57;4.03;;;3.17;;
12956;SDS011;6543;48.836;10.092;2023-08-31T00:35:24;4.00;;;2.70;;
12956;SDS011;6543;48.836;10.092;2023-08-31T00:37:52;4.03;;;3.17;;
12956;SDS011;6543;48.836;10.092;2023-08-31T00:40:24;3.83;;;2.77;;
12956;SDS011;6543;48.836;10.092;2023-08-31T00:42:53;3.30;;;2.87;;
12956;SDS011;6543;48.836;10.092;2023-08-31T00:45:19;2.77;;;2.57;;
12956;SDS011;6543;48.836;10.092;2023-08-31T00:47:47;2.43;;;2.23;;
12956;SDS011;6543;48.836;10.092;2023-08-31T00:50:15;4.40;;;2.53;;
12956;SDS011;6543;48.836;10.092;2023-08-31T00:52:42;3.60;;;2.50;;
12956;SDS011;6543;48.836;10.092;2023-08-31T00:55:10;2.33;;;2.13;;
12956;SDS011;6543;48.836;10.092;2023-08-31T00:57:39;2.30;;;2.10;;
12956;SDS011;6543;48.836;10.092;2023-08-31T01:00:07;3.37;;;2.73;;
12956;SDS011;6543;48.836;10.092;2023-08-31T01:02:37;2.63;;;2.07;;
12956;SDS011;6543;48.836;10.092;2023-08-31T01:05:11;2.80;;;2.30;;
12956;SDS011;6543;48.836;10.092;2023-08-31T01:07:48;2.40;;;2.20;;
12956;SDS011;6543;48.836;10.092;2023-08-31T01:10:22;1.70;;;1.53;;
12956;SDS011;6543;48.836;10.092;2023-08-31T01:12:58;4.20;;;2.37;;
12956;SDS011;6543;48.836;10.092;2023-08-31T01:15:28;4.67;;;1.90;;
12956;SDS011;6543;48.836;10.092;2023-08-31T01:17:57;2.67;;;2.30;;
12956;SDS011;6543;48.836;10.092;2023-08-31T01:20:28;2.40;;;2.20;;
12956;SDS011;6543;48.836;10.092;2023-08-31T01:23:01;2.20;;;1.80;;
12956;SDS011;6543;48.836;10.092;2023-08-31T01:25:32;3.70;;;2.27;;
12956;SDS011;6543;48.836;10.092;2023-08-31T01:28:00;2.47;;;2.13;;
12956;SDS011;6543;48.836;10.092;2023-08-31T01:30:29;4.90;;;2.70;;
12956;SDS011;6543;48.836;10.092;2023-08-31T01:32:57;2.67;;;2.47;;
12956;SDS011;6543;48.836;10.092;2023-08-31T01:35:24;2.67;;;2.20;;
12956;SDS011;6543;48.836;10.092;2023-08-31T01:37:53;2.80;;;2.60;;
12956;SDS011;6543;48.836;10.092;2023-08-31T01:40:25;3.30;;;2.57;;
12956;SDS011;6543;48.836;10.092;2023-08-31T01:43:01;3.00;;;2.70;;
12956;SDS011;6543;48.836;10.092;2023-08-31T01:45:29;3.30;;;2.73;;
12956;SDS011;6543;48.836;10.092;2023-08-31T01:47:58;5.70;;;2.93;;
12956;SDS011;6543;48.836;10.092;2023-08-31T01:50:25;4.47;;;2.93;;
12956;SDS011;6543;48.836;10.092;2023-08-31T01:52:52;3.60;;;3.30;;
12956;SDS011;6543;48.836;10.092;2023-08-31T01:55:37;6.40;;;3.20;;
12956;SDS011;6543;48.836;10.092;2023-08-31T01:58:05;5.17;;;3.53;;
12956;SDS011;6543;48.836;10.092;2023-08-31T02:00:32;5.33;;;3.67;;
12956;SDS011;6543;48.836;10.092;2023-08-31T02:03:02;3.73;;;3.43;;
12956;SDS011;6543;48.836;10.092;2023-08-31T02:05:29;5.77;;;3.40;;
12956;SDS011;6543;48.836;10.092;2023-08-31T02:07:55;6.27;;;3.93;;
12956;SDS011;6543;48.836;10.092;2023-08-31T02:10:22;6.63;;;4.03;;
12956;SDS011;6543;48.836;10.092;2023-08-31T02:12:49;4.37;;;3.70;;
12956;SDS011;6543;48.836;10.092;2023-08-31T02:15:17;6.33;;;3.57;;
12956;SDS011;6543;48.836;10.092;2023-08-31T02:17:44;6.63;;;4.13;;
12956;SDS011;6543;48.836;10.092;2023-08-31T02:20:11;8.47;;;4.40;;
12956;SDS011;6543;48.836;10.092;2023-08-31T02:22:39;4.97;;;4.20;;
12956;SDS011;6543;48.836;10.092;2023-08-31T02:25:06;6.03;;;4.73;;
12956;SDS011;6543;48.836;10.092;2023-08-31T02:27:33;6.37;;;4.50;;
12956;SDS011;6543;48.836;10.092;2023-08-31T02:30:00;10.53;;;5.53;;
12956;SDS011;6543;48.836;10.092;2023-08-31T02:32:31;6.23;;;5.00;;
12956;SDS011;6543;48.836;10.092;2023-08-31T02:34:58;7.30;;;4.40;;
12956;SDS011;6543;48.836;10.092;2023-08-31T02:37:25;7.43;;;4.73;;
12956;SDS011;6543;48.836;10.092;2023-08-31T02:39:51;7.63;;;5.27;;
12956;SDS011;6543;48.836;10.092;2023-08-31T02:42:19;8.57;;;5.30;;
12956;SDS011;6543;48.836;10.092;2023-08-31T02:44:45;9.67;;;5.30;;
12956;SDS011;6543;48.836;10.092;2023-08-31T02:47:12;7.63;;;5.17;;
12956;SDS011;6543;48.836;10.092;2023-08-31T02:49:40;6.47;;;5.20;;
12956;SDS011;6543;48.836;10.092;2023-08-31T02:52:07;7.43;;;5.47;;
12956;SDS011;6543;48.836;10.092;2023-08-31T02:54:34;9.97;;;5.67;;
12956;SDS011;6543;48.836;10.092;2023-08-31T02:57:01;10.00;;;6.20;;
12956;SDS011;6543;48.836;10.092;2023-08-31T02:59:28;10.97;;;6.83;;
12956;SDS011;6543;48.836;10.092;2023-08-31T03:01:54;7.37;;;6.57;;
12956;SDS011;6543;48.836;10.092;2023-08-31T03:04:21;9.07;;;6.10;;
12956;SDS011;6543;48.836;10.092;2023-08-31T03:06:49;8.73;;;6.17;;
12956;SDS011;6543;48.836;10.092;2023-08-31T03:09:16;13.47;;;7.23;;
12956;SDS011;6543;48.836;10.092;2023-08-31T03:11:43;11.47;;;6.77;;
12956;SDS011;6543;48.836;10.092;2023-08-31T03:14:10;8.70;;;6.70;;
12956;SDS011;6543;48.836;10.092;2023-08-31T03:16:36;12.47;;;7.20;;
12956;SDS011;6543;48.836;10.092;2023-08-31T03:19:03;13.53;;;7.13;;
12956;SDS011;6543;48.836;10.092;2023-08-31T03:21:31;8.00;;;7.17;;
12956;SDS011;6543;48.836;10.092;2023-08-31T03:23:59;7.60;;;6.40;;
12956;SDS011;6543;48.836;10.092;2023-08-31T03:26:26;8.70;;;7.10;;
12956;SDS011;6543;48.836;10.092;2023-08-31T03:28:52;10.17;;;7.63;;
12956;SDS011;6543;48.836;10.092;2023-08-31T03:31:19;13.73;;;7.87;;
12956;SDS011;6543;48.836;10.092;2023-08-31T03:33:46;10.03;;;7.00;;
12956;SDS011;6543;48.836;10.092;2023-08-31T03:36:13;8.63;;;6.87;;
12956;SDS011;6543;48.836;10.092;2023-08-31T03:38:39;8.93;;;6.70;;
12956;SDS011;6543;48.836;10.092;2023-08-31T03:41:07;11.13;;;6.97;;
12956;SDS011;6543;48.836;10.092;2023-08-31T03:43:34;9.77;;;7.30;;
12956;SDS011;6543;48.836;10.092;2023-08-31T03:46:01;13.53;;;7.23;;
12956;SDS011;6543;48.836;10.092;2023-08-31T03:48:28;12.73;;;7.57;;
12956;SDS011;6543;48.836;10.092;2023-08-31T03:50:55;9.13;;;7.27;;
12956;SDS011;6543;48.836;10.092;2023-08-31T03:53:22;10.47;;;7.37;;
12956;SDS011;6543;48.836;10.092;2023-08-31T03:55:49;12.83;;;7.40;;
12956;SDS011;6543;48.836;10.092;2023-08-31T03:58:17;14.60;;;7.37;;
12956;SDS011;6543;48.836;10.092;2023-08-31T04:00:44;12.20;;;7.90;;
12956;SDS011;6543;48.836;10.092;2023-08-31T04:03:11;11.23;;;6.77;;
12956;SDS011;6543;48.836;10.092;2023-08-31T04:05:37;14.00;;;7.87;;
12956;SDS011;6543;48.836;10.092;2023-08-31T04:08:04;11.73;;;7.80;;
12956;SDS011;6543;48.836;10.092;2023-08-31T04:10:31;9.97;;;8.20;;
12956;SDS011;6543;48.836;10.092;2023-08-31T04:12:58;13.33;;;8.07;;
12956;SDS011;6543;48.836;10.092;2023-08-31T04:15:26;9.67;;;7.97;;
12956;SDS011;6543;48.836;10.092;2023-08-31T04:17:55;10.60;;;8.00;;
12956;SDS011;6543;48.836;10.092;2023-08-31T04:20:22;9.07;;;7.47;;
12956;SDS011;6543;48.836;10.092;2023-08-31T04:22:49;11.23;;;7.57;;
12956;SDS011;6543;48.836;10.092;2023-08-31T04:25:16;12.03;;;8.40;;
12956;SDS011;6543;48.836;10.092;2023-08-31T04:27:43;11.93;;;7.93;;
12956;SDS011;6543;48.836;10.092;2023-08-31T04:30:11;10.37;;;7.90;;
12956;SDS011;6543;48.836;10.092;2023-08-31T04:32:39;12.93;;;8.23;;
12956;SDS011;6543;48.836;10.092;2023-08-31T04:35:06;13.47;;;8.43;;
12956;SDS011;6543;48.836;10.092;2023-08-31T04:37:34;11.97;;;7.23;;
12956;SDS011;6543;48.836;10.092;2023-08-31T04:40:01;10.27;;;8.57;;
12956;SDS011;6543;48.836;10.092;2023-08-31T04:42:29;12.93;;;8.80;;
12956;SDS011;6543;48.836;10.092;2023-08-31T04:44:55;11.47;;;8.70;;
12956;SDS011;6543;48.836;10.092;2023-08-31T04:47:22;11.00;;;9.00;;
12956;SDS011;6543;48.836;10.092;2023-08-31T04:49:50;14.67;;;9.63;;
12956;SDS011;6543;48.836;10.092;2023-08-31T04:52:17;13.77;;;9.70;;
12956;SDS011;6543;48.836;10.092;2023-08-31T04:54:44;12.13;;;8.60;;
12956;SDS011;6543;48.836;10.092;2023-08-31T04:57:10;11.37;;;8.60;;
12956;SDS011;6543;48.836;10.092;2023-08-31T04:59:37;15.67;;;8.63;;
12956;SDS011;6543;48.836;10.092;2023-08-31T05:02:04;11.13;;;8.33;;
12956;SDS011;6543;48.836;10.092;2023-08-31T05:04:31;11.30;;;8.27;;
12956;SDS011;6543;48.836;10.092;2023-08-31T05:06:59;9.73;;;8.33;;
12956;SDS011;6543;48.836;10.092;2023-08-31T05:09:26;13.93;;;7.97;;
12956;SDS011;6543;48.836;10.092;2023-08-31T05:11:57;12.47;;;8.50;;
12956;SDS011;6543;48.836;10.092;2023-08-31T05:14:24;10.33;;;8.47;;
12956;SDS011;6543;48.836;10.092;2023-08-31T05:16:51;10.70;;;8.07;;
12956;SDS011;6543;48.836;10.092;2023-08-31T05:19:17;11.47;;;8.10;;
12956;SDS011;6543;48.836;10.092;2023-08-31T05:21:44;11.37;;;8.47;;
12956;SDS011;6543;48.836;10.092;2023-08-31T05:24:12;9.70;;;7.97;;
12956;SDS011;6543;48.836;10.092;2023-08-31T05:26:39;8.30;;;7.50;;
12956;SDS011;6543;48.836;10.092;2023-08-31T05:29:06;9.57;;;8.00;;
12956;SDS011;6543;48.836;10.092;2023-08-31T05:31:33;11.57;;;8.00;;
12956;SDS011;6543;48.836;10.092;2023-08-31T05:34:00;11.67;;;7.73;;
12956;SDS011;6543;48.836;10.092;2023-08-31T05:36:26;8.90;;;7.37;;
12956;SDS011;6543;48.836;10.092;2023-08-31T05:38:53;10.13;;;6.80;;
12956;SDS011;6543;48.836;10.092;2023-08-31T05:41:21;9.27;;;6.20;;
12956;SDS011;6543;48.836;10.092;2023-08-31T05:43:48;7.37;;;5.97;;
12956;SDS011;6543;48.836;10.092;2023-08-31T05:46:15;11.33;;;6.13;;
12956;SDS011;6543;48.836;10.092;2023-08-31T05:48:42;15.60;;;5.80;;
12956;SDS011;6543;48.836;10.092;2023-08-31T05:51:09;9.90;;;5.80;;
12956;SDS011;6543;48.836;10.092;2023-08-31T05:53:35;8.37;;;5.70;;
12956;SDS011;6543;48.836;10.092;2023-08-31T05:56:02;7.13;;;5.20;;
12956;SDS011;6543;48.836;10.092;2023-08-31T05:58:31;6.63;;;5.07;;
12956;SDS011;6543;48.836;10.092;2023-08-31T06:00:59;8.20;;;3.83;;
12956;SDS011;6543;48.836;10.092;2023-08-31T06:03:27;8.33;;;3.90;;
12956;SDS011;6543;48.836;10.092;2023-08-31T06:05:54;8.07;;;4.20;;
12956;SDS011;6543;48.836;10.092;2023-08-31T06:08:22;6.70;;;3.97;;
12956;SDS011;6543;48.836;10.092;2023-08-31T06:10:49;6.80;;;3.90;;
12956;SDS011;6543;48.836;10.092;2023-08-31T06:13:15;5.23;;;3.93;;
12956;SDS011;6543;48.836;10.092;2023-08-31T06:15:44;3.77;;;3.47;;
12956;SDS011;6543;48.836;10.092;2023-08-31T06:18:10;4.23;;;3.30;;
12956;SDS011;6543;48.836;10.092;2023-08-31T06:20:37;4.30;;;2.30;;
12956;SDS011;6543;48.836;10.092;2023-08-31T06:23:04;5.23;;;2.67;;
12956;SDS011;6543;48.836;10.092;2023-08-31T06:25:31;4.20;;;2.43;;
12956;SDS011;6543;48.836;10.092;2023-08-31T06:27:58;2.43;;;1.80;;
12956;SDS011;6543;48.836;10.092;2023-08-31T06:30:25;3.40;;;2.27;;
12956;SDS011;6543;48.836;10.092;2023-08-31T06:32:53;3.43;;;1.87;;
12956;SDS011;6543;48.836;10.092;2023-08-31T06:35:20;3.67;;;1.97;;
12956;SDS011;6543;48.836;10.092;2023-08-31T06:37:47;3.47;;;2.20;;
12956;SDS011;6543;48.836;10.092;2023-08-31T06:40:15;3.87;;;2.03;;
12956;SDS011;6543;48.836;10.092;2023-08-31T06:42:42;4.30;;;2.30;;
12956;SDS011;6543;48.836;10.092;2023-08-31T06:45:09;2.30;;;1.60;;
12956;SDS011;6543;48.836;10.092;2023-08-31T06:47:36;3.00;;;1.70;;
12956;SDS011;6543;48.836;10.092;2023-08-31T06:50:05;4.77;;;2.10;;
12956;SDS011;6543;48.836;10.092;2023-08-31T06:52:32;5.23;;;2.17;;
12956;SDS011;6543;48.836;10.092;2023-08-31T06:55:00;9.57;;;2.20;;
12956;SDS011;6543;48.836;10.092;2023-08-31T06:57:28;4.40;;;2.27;;
12956;SDS011;6543;48.836;10.092;2023-08-31T06:59:55;8.77;;;2.80;;
12956;SDS011;6543;48.836;10.092;2023-08-31T07:02:22;2.23;;;1.63;;
12956;SDS011;6543;48.836;10.092;2023-08-31T07:04:52;3.47;;;1.67;;
12956;SDS011;6543;48.836;10.092;2023-08-31T07:07:20;4.47;;;1.93;;
12956;SDS011;6543;48.836;10.092;2023-08-31T07:09:47;2.57;;;1.77;;
12956;SDS011;6543;48.836;10.092;2023-08-31T07:12:14;3.57;;;1.80;;
12956;SDS011;6543;48.836;10.092;2023-08-31T07:14:41;3.67;;;1.80;;
12956;SDS011;6543;48.836;10.092;2023-08-31T07:17:08;4.33;;;1.93;;
12956;SDS011;6543;48.836;10.092;2023-08-31T07:19:36;3.43;;;1.60;;
12956;SDS011;6543;48.836;10.092;2023-08-31T07:22:03;6.60;;;2.10;;
12956;SDS011;6543;48.836;10.092;2023-08-31T07:24:32;5.77;;;2.20;;
12956;SDS011;6543;48.836;10.092;2023-08-31T07:27:01;3.77;;;2.10;;
12956;SDS011;6543;48.836;10.092;2023-08-31T07:29:28;2.73;;;1.83;;
12956;SDS011;6543;48.836;10.092;2023-08-31T07:31:55;5.27;;;2.00;;
12956;SDS011;6543;48.836;10.092;2023-08-31T07:34:22;2.90;;;1.97;;
12956;SDS011;6543;48.836;10.092;2023-08-31T07:36:49;4.40;;;2.10;;
12956;SDS011;6543;48.836;10.092;2023-08-31T07:39:16;7.70;;;2.30;;
12956;SDS011;6543;48.836;10.092;2023-08-31T07:41:45;5.43;;;1.90;;
12956;SDS011;6543;48.836;10.092;2023-08-31T07:44:12;5.13;;;2.00;;
12956;SDS011;6543;48.836;10.092;2023-08-31T07:46:39;7.37;;;2.17;;
12956;SDS011;6543;48.836;10.092;2023-08-31T07:49:05;4.30;;;1.73;;
12956;SDS011;6543;48.836;10.092;2023-08-31T07:51:32;6.47;;;2.03;;
12956;SDS011;6543;48.836;10.092;2023-08-31T07:53:59;4.80;;;2.07;;
12956;SDS011;6543;48.836;10.092;2023-08-31T07:56:28;2.27;;;1.30;;
12956;SDS011;6543;48.836;10.092;2023-08-31T07:58:56;4.83;;;1.80;;
12956;SDS011;6543;48.836;10.092;2023-08-31T08:01:23;3.00;;;1.60;;
12956;SDS011;6543;48.836;10.092;2023-08-31T08:03:50;4.63;;;1.53;;
12956;SDS011;6543;48.836;10.092;2023-08-31T08:06:17;2.67;;;1.47;;
12956;SDS011;6543;48.836;10.092;2023-08-31T08:08:44;2.73;;;1.60;;
12956;SDS011;6543;48.836;10.092;2023-08-31T08:11:10;3.20;;;1.63;;
12956;SDS011;6543;48.836;10.092;2023-08-31T08:13:37;6.63;;;1.90;;
12956;SDS011;6543;48.836;10.092;2023-08-31T08:16:05;6.63;;;1.80;;
12956;SDS011;6543;48.836;10.092;2023-08-31T08:18:34;3.67;;;1.70;;
12956;SDS011;6543;48.836;10.092;2023-08-31T08:21:01;6.03;;;2.00;;
12956;SDS011;6543;48.836;10.092;2023-08-31T08:23:28;2.07;;;1.30;;
12956;SDS011;6543;48.836;10.092;2023-08-31T08:25:55;6.97;;;2.40;;
12956;SDS011;6543;48.836;10.092;2023-08-31T08:28:24;8.23;;;1.87;;
12956;SDS011;6543;48.836;10.092;2023-08-31T08:30:51;3.43;;;1.37;;
12956;SDS011;6543;48.836;10.092;2023-08-31T08:33:19;5.33;;;1.60;;
12956;SDS011;6543;48.836;10.092;2023-08-31T08:35:46;4.13;;;1.33;;
12956;SDS011;6543;48.836;10.092;2023-08-31T08:38:13;7.37;;;2.00;;
12956;SDS011;6543;48.836;10.092;2023-08-31T08:40:40;5.97;;;1.93;;
12956;SDS011;6543;48.836;10.092;2023-08-31T08:43:07;7.70;;;1.77;;
12956;SDS011;6543;48.836;10.092;2023-08-31T08:45:35;3.43;;;1.50;;
12956;SDS011;6543;48.836;10.092;2023-08-31T08:48:04;3.37;;;1.63;;
12956;SDS011;6543;48.836;10.092;2023-08-31T08:50:34;4.97;;;2.00;;
12956;SDS011;6543;48.836;10.092;2023-08-31T08:53:02;4.23;;;1.97;;
12956;SDS011;6543;48.836;10.092;2023-08-31T08:55:29;6.53;;;2.30;;
12956;SDS011;6543;48.836;10.092;2023-08-31T08:57:57;5.83;;;2.10;;
12956;SDS011;6543;48.836;10.092;2023-08-31T09:00:25;5.60;;;1.67;;
12956;SDS011;6543;48.836;10.092;2023-08-31T09:02:52;3.73;;;1.80;;
12956;SDS011;6543;48.836;10.092;2023-08-31T09:05:20;3.93;;;1.97;;
12956;SDS011;6543;48.836;10.092;2023-08-31T09:08:04;5.13;;;2.03;;
12956;SDS011;6543;48.836;10.092;2023-08-31T09:10:35;3.30;;;1.93;;
12956;SDS011;6543;48.836;10.092;2023-08-31T09:13:04;6.53;;;2.33;;
12956;SDS011;6543;48.836;10.092;2023-08-31T09:15:41;4.30;;;1.90;;
12956;SDS011;6543;48.836;10.092;2023-08-31T09:18:13;4.63;;;1.93;;
12956;SDS011;6543;48.836;10.092;2023-08-31T09:20:44;3.87;;;2.03;;
12956;SDS011;6543;48.836;10.092;2023-08-31T09:23:13;4.00;;;2.10;;
12956;SDS011;6543;48.836;10.092;2023-08-31T09:25:41;6.27;;;1.80;;
12956;SDS011;6543;48.836;10.092;2023-08-31T09:28:09;3.80;;;1.80;;
12956;SDS011;6543;48.836;10.092;2023-08-31T09:30:36;4.13;;;1.80;;
12956;SDS011;6543;48.836;10.092;2023-08-31T09:33:05;9.30;;;1.77;;
12956;SDS011;6543;48.836;10.092;2023-08-31T09:35:34;4.17;;;1.97;;
12956;SDS011;6543;48.836;10.092;2023-08-31T09:38:07;3.43;;;1.60;;
12956;SDS011;6543;48.836;10.092;2023-08-31T09:40:36;6.93;;;1.97;;
12956;SDS011;6543;48.836;10.092;2023-08-31T09:43:03;4.30;;;1.97;;
12956;SDS011;6543;48.836;10.092;2023-08-31T09:45:31;6.83;;;1.90;;
12956;SDS011;6543;48.836;10.092;2023-08-31T09:47:59;4.87;;;1.97;;
12956;SDS011;6543;48.836;10.092;2023-08-31T09:50:28;4.47;;;1.50;;
12956;SDS011;6543;48.836;10.092;2023-08-31T09:52:56;4.83;;;1.93;;
12956;SDS011;6543;48.836;10.092;2023-08-31T09:55:27;3.30;;;1.93;;
12956;SDS011;6543;48.836;10.092;2023-08-31T09:57:56;5.00;;;2.00;;
12956;SDS011;6543;48.836;10.092;2023-08-31T10:00:24;5.40;;;2.70;;
12956;SDS011;6543;48.836;10.092;2023-08-31T10:02:53;5.57;;;2.00;;
12956;SDS011;6543;48.836;10.092;2023-08-31T10:05:22;3.83;;;1.90;;
12956;SDS011;6543;48.836;10.092;2023-08-31T10:07:50;4.73;;;2.03;;
12956;SDS011;6543;48.836;10.092;2023-08-31T10:10:17;4.33;;;1.70;;
12956;SDS011;6543;48.836;10.092;2023-08-31T10:12:45;3.60;;;1.77;;
12956;SDS011;6543;48.836;10.092;2023-08-31T10:15:16;5.00;;;1.70;;
12956;SDS011;6543;48.836;10.092;2023-08-31T10:17:43;2.87;;;1.57;;
12956;SDS011;6543;48.836;10.092;2023-08-31T10:20:11;3.93;;;2.07;;
12956;SDS011;6543;48.836;10.092;2023-08-31T10:22:40;3.97;;;1.77;;
12956;SDS011;6543;48.836;10.092;2023-08-31T10:25:09;4.27;;;1.53;;
12956;SDS011;6543;48.836;10.092;2023-08-31T10:27:37;5.30;;;1.73;;
12956;SDS011;6543;48.836;10.092;2023-08-31T10:33:22;7.07;;;1.90;;
12956;SDS011;6543;48.836;10.092;2023-08-31T10:35:50;3.67;;;1.63;;
12956;SDS011;6543;48.836;10.092;2023-08-31T10:38:23;5.67;;;2.10;;
12956;SDS011;6543;48.836;10.092;2023-08-31T10:41:02;7.03;;;2.40;;
12956;SDS011;6543;48.836;10.092;2023-08-31T10:43:45;4.57;;;2.17;;
12956;SDS011;6543;48.836;10.092;2023-08-31T10:46:28;2.40;;;1.90;;
12956;SDS011;6543;48.836;10.092;2023-08-31T10:48:57;4.33;;;2.23;;
12956;SDS011;6543;48.836;10.092;2023-08-31T10:51:25;2.60;;;1.50;;
12956;SDS011;6543;48.836;10.092;2023-08-31T10:54:03;3.23;;;1.80;;
12956;SDS011;6543;48.836;10.092;2023-08-31T10:56:38;3.03;;;1.77;;
12956;SDS011;6543;48.836;10.092;2023-08-31T10:59:19;5.50;;;2.50;;
12956;SDS011;6543;48.836;10.092;2023-08-31T11:01:54;3.40;;;2.20;;
12956;SDS011;6543;48.836;10.092;2023-08-31T11:04:22;4.47;;;2.10;;
12956;SDS011;6543;48.836;10.092;2023-08-31T11:09:38;5.30;;;2.20;;
12956;SDS011;6543;48.836;10.092;2023-08-31T11:12:05;6.10;;;2.10;;
12956;SDS011;6543;48.836;10.092;2023-08-31T11:14:32;3.93;;;2.00;;
12956;SDS011;6543;48.836;10.092;2023-08-31T11:17:00;6.33;;;1.97;;
12956;SDS011;6543;48.836;10.092;2023-08-31T11:19:30;4.23;;;2.00;;
12956;SDS011;6543;48.836;10.092;2023-08-31T11:21:57;5.27;;;2.27;;
12956;SDS011;6543;48.836;10.092;2023-08-31T11:24:26;4.57;;;1.77;;
12956;SDS011;6543;48.836;10.092;2023-08-31T11:26:53;6.53;;;2.13;;
12956;SDS011;6543;48.836;10.092;2023-08-31T11:29:20;4.20;;;2.40;;
12956;SDS011;6543;48.836;10.092;2023-08-31T11:31:47;8.43;;;2.10;;
12956;SDS011;6543;48.836;10.092;2023-08-31T11:34:15;5.17;;;2.10;;
12956;SDS011;6543;48.836;10.092;2023-08-31T11:36:44;2.30;;;1.63;;
12956;SDS011;6543;48.836;10.092;2023-08-31T11:39:12;7.63;;;2.07;;
12956;SDS011;6543;48.836;10.092;2023-08-31T11:41:39;4.30;;;2.23;;
12956;SDS011;6543;48.836;10.092;2023-08-31T11:44:08;3.87;;;1.77;;
12956;SDS011;6543;48.836;10.092;2023-08-31T11:46:35;4.30;;;1.70;;
12956;SDS011;6543;48.836;10.092;2023-08-31T11:49:03;3.30;;;2.07;;
12956;SDS011;6543;48.836;10.092;2023-08-31T11:51:32;4.03;;;1.67;;
12956;SDS011;6543;48.836;10.092;2023-08-31T11:54:00;4.70;;;2.00;;
12956;SDS011;6543;48.836;10.092;2023-08-31T11:56:37;4.17;;;2.47;;
12956;SDS011;6543;48.836;10.092;2023-08-31T11:59:07;4.90;;;1.40;;
12956;SDS011;6543;48.836;10.092;2023-08-31T12:01:37;4.57;;;1.87;;
12956;SDS011;6543;48.836;10.092;2023-08-31T12:04:09;5.70;;;1.77;;
12956;SDS011;6543;48.836;10.092;2023-08-31T12:06:39;3.63;;;1.58;;
12956;SDS011;6543;48.836;10.092;2023-08-31T12:09:07;4.97;;;2.23;;
12956;SDS011;6543;48.836;10.092;2023-08-31T12:11:34;5.55;;;2.08;;
12956;SDS011;6543;48.836;10.092;2023-08-31T12:14:01;2.35;;;1.42;;
12956;SDS011;6543;48.836;10.092;2023-08-31T12:16:32;4.83;;;1.73;;
12956;SDS011;6543;48.836;10.092;2023-08-31T12:19:01;2.87;;;1.70;;
12956;SDS011;6543;48.836;10.092;2023-08-31T12:21:29;3.53;;;1.90;;
12956;SDS011;6543;48.836;10.092;2023-08-31T12:23:58;3.27;;;2.00;;
12956;SDS011;6543;48.836;10.092;2023-08-31T12:26:24;2.83;;;1.70;;
12956;SDS011;6543;48.836;10.092;2023-08-31T12:28:51;5.28;;;2.40;;
12956;SDS011;6543;48.836;10.092;2023-08-31T12:31:18;2.25;;;1.80;;
12956;SDS011;6543;48.836;10.092;2023-08-31T12:33:45;3.88;;;2.20;;
12956;SDS011;6543;48.836;10.092;2023-08-31T12:36:12;10.07;;;2.40;;
12956;SDS011;6543;48.836;10.092;2023-08-31T12:38:39;8.05;;;2.28;;
12956;SDS011;6543;48.836;10.092;2023-08-31T12:41:07;4.30;;;1.98;;
12956;SDS011;6543;48.836;10.092;2023-08-31T12:43:34;4.57;;;1.97;;
12956;SDS011;6543;48.836;10.092;2023-08-31T12:46:01;7.85;;;2.13;;
12956;SDS011;6543;48.836;10.092;2023-08-31T12:48:30;8.27;;;1.98;;
12956;SDS011;6543;48.836;10.092;2023-08-31T12:50:57;7.63;;;1.97;;
12956;SDS011;6543;48.836;10.092;2023-08-31T12:53:24;5.43;;;2.20;;
12956;SDS011;6543;48.836;10.092;2023-08-31T12:55:51;7.27;;;2.70;;
12956;SDS011;6543;48.836;10.092;2023-08-31T12:58:20;4.97;;;1.90;;
12956;SDS011;6543;48.836;10.092;2023-08-31T13:00:47;5.17;;;2.17;;
12956;SDS011;6543;48.836;10.092;2023-08-31T13:03:15;3.80;;;2.03;;
12956;SDS011;6543;48.836;10.092;2023-08-31T13:05:42;4.30;;;2.10;;
12956;SDS011;6543;48.836;10.092;2023-08-31T13:08:09;6.10;;;2.30;;
12956;SDS011;6543;48.836;10.092;2023-08-31T13:10:36;6.47;;;2.53;;
12956;SDS011;6543;48.836;10.092;2023-08-31T13:13:03;4.55;;;1.98;;
12956;SDS011;6543;48.836;10.092;2023-08-31T13:15:32;6.07;;;2.50;;
12956;SDS011;6543;48.836;10.092;2023-08-31T13:17:59;5.93;;;2.00;;
12956;SDS011;6543;48.836;10.092;2023-08-31T13:20:26;4.45;;;2.22;;
12956;SDS011;6543;48.836;10.092;2023-08-31T13:22:53;8.30;;;1.95;;
12956;SDS011;6543;48.836;10.092;2023-08-31T13:25:20;3.38;;;1.98;;
12956;SDS011;6543;48.836;10.092;2023-08-31T13:27:46;5.47;;;2.60;;
12956;SDS011;6543;48.836;10.092;2023-08-31T13:30:13;7.22;;;2.40;;
12956;SDS011;6543;48.836;10.092;2023-08-31T13:32:42;7.22;;;2.75;;
12956;SDS011;6543;48.836;10.092;2023-08-31T13:35:09;9.30;;;2.65;;
12956;SDS011;6543;48.836;10.092;2023-08-31T13:37:36;5.45;;;2.65;;
12956;SDS011;6543;48.836;10.092;2023-08-31T13:40:03;4.63;;;2.17;;
12956;SDS011;6543;48.836;10.092;2023-08-31T13:42:33;6.82;;;2.10;;
12956;SDS011;6543;48.836;10.092;2023-08-31T13:45:03;3.92;;;1.83;;
12956;SDS011;6543;48.836;10.092;2023-08-31T13:47:32;6.18;;;1.95;;
12956;SDS011;6543;48.836;10.092;2023-08-31T13:50:00;3.08;;;1.80;;
12956;SDS011;6543;48.836;10.092;2023-08-31T13:52:29;6.22;;;2.75;;
12956;SDS011;6543;48.836;10.092;2023-08-31T13:54:55;2.90;;;1.73;;
12956;SDS011;6543;48.836;10.092;2023-08-31T13:57:22;8.27;;;2.50;;
12956;SDS011;6543;48.836;10.092;2023-08-31T13:59:49;8.48;;;2.60;;
12956;SDS011;6543;48.836;10.092;2023-08-31T14:02:16;6.23;;;2.53;;
12956;SDS011;6543;48.836;10.092;2023-08-31T14:04:42;4.63;;;2.53;;
12956;SDS011;6543;48.836;10.092;2023-08-31T14:07:11;4.45;;;2.13;;
12956;SDS011;6543;48.836;10.092;2023-08-31T14:09:38;4.78;;;2.15;;
12956;SDS011;6543;48.836;10.092;2023-08-31T14:12:05;5.23;;;2.13;;
12956;SDS011;6543;48.836;10.092;2023-08-31T14:14:32;5.05;;;2.50;;
12956;SDS011;6543;48.836;10.092;2023-08-31T14:17:00;6.82;;;2.30;;
12956;SDS011;6543;48.836;10.092;2023-08-31T14:19:28;5.38;;;2.25;;
12956;SDS011;6543;48.836;10.092;2023-08-31T14:21:55;6.57;;;2.10;;
12956;SDS011;6543;48.836;10.092;2023-08-31T14:24:23;4.68;;;2.08;;
12956;SDS011;6543;48.836;10.092;2023-08-31T14:26:50;7.47;;;2.17;;
12956;SDS011;6543;48.836;10.092;2023-08-31T14:29:17;4.45;;;2.60;;
12956;SDS011;6543;48.836;10.092;2023-08-31T14:31:44;8.32;;;2.67;;
12956;SDS011;6543;48.836;10.092;2023-08-31T14:34:11;5.63;;;2.53;;
12956;SDS011;6543;48.836;10.092;2023-08-31T14:36:38;4.07;;;1.90;;
12956;SDS011;6543;48.836;10.092;2023-08-31T14:39:05;9.32;;;2.63;;
12956;SDS011;6543;48.836;10.092;2023-08-31T14:41:33;4.25;;;2.00;;
12956;SDS011;6543;48.836;10.092;2023-08-31T14:44:00;6.85;;;2.22;;
12956;SDS011;6543;48.836;10.092;2023-08-31T14:46:26;7.40;;;2.63;;
12956;SDS011;6543;48.836;10.092;2023-08-31T14:48:53;5.13;;;2.50;;
12956;SDS011;6543;48.836;10.092;2023-08-31T14:51:20;6.28;;;2.33;;
12956;SDS011;6543;48.836;10.092;2023-08-31T14:53:47;5.77;;;2.47;;
12956;SDS011;6543;48.836;10.092;2023-08-31T14:56:14;4.50;;;2.47;;